Time;durP1;ratioP1;P1;durP2;ratioP2;P2;SDS_P1;SDS_P2;PMS_P1;PMS_P2;Temp;Humidity;BMP_temperature;BMP_pressure;BME280_temperature;BME280_humidity;BME280_pressure;Samples;Min_cycle;Max_cycle;Signal;HPM_P1;HPM_P2
2021/12/04 00:00:23;;;;;;;90.07;39.97;;;;;;;4.47;97.26;99871.94;5054954;28;20104;-41
2021/12/04 00:02:53;;;;;;;84.47;36.55;;;;;;;4.47;97.16;99866.63;5051215;28;20101;-41
2021/12/04 00:05:20;;;;;;;83.22;38.80;;;;;;;4.42;96.89;99870.78;5052349;28;20047;-41
2021/12/04 00:07:45;;;;;;;93.30;40.33;;;;;;;4.45;97.25;99863.31;5060132;28;20075;-41
2021/12/04 00:10:17;;;;;;;93.85;39.85;;;;;;;4.45;97.27;99851.81;5064866;28;20021;-42
2021/12/04 00:12:42;;;;;;;88.50;37.95;;;;;;;4.43;97.27;99857.31;5060227;28;20495;-41
2021/12/04 00:15:08;;;;;;;91.78;38.80;;;;;;;4.41;97.25;99856.63;5059510;28;20039;-42
2021/12/04 00:17:34;;;;;;;93.35;37.05;;;;;;;4.42;97.38;99842.31;5057927;28;20119;-40
2021/12/04 00:19:59;;;;;;;87.90;36.33;;;;;;;4.42;96.86;99841.47;5052790;28;20059;-41
2021/12/04 00:22:25;;;;;;;94.35;39.13;;;;;;;4.44;97.47;99837.66;5057132;28;20120;-40
2021/12/04 00:24:50;;;;;;;87.63;37.67;;;;;;;4.44;97.13;99829.66;5071488;28;20025;-41
2021/12/04 00:27:15;;;;;;;99.20;37.63;;;;;;;4.41;97.27;99840.66;5071671;28;20051;-41
2021/12/04 00:29:41;;;;;;;97.97;37.65;;;;;;;4.45;97.40;99839.34;5070161;28;20024;-39
2021/12/04 00:32:25;;;;;;;97.32;39.47;;;;;;;4.46;97.54;99848.97;5071770;28;20020;-40
2021/12/04 00:34:56;;;;;;;97.35;38.92;;;;;;;4.49;97.41;99843.31;5058766;28;20029;-41
2021/12/04 00:51:01;;;;;;;94.85;37.20;;;;;;;4.50;97.44;99841.47;5067662;28;20044;-40
2021/12/04 00:53:27;;;;;;;101.90;39.53;;;;;;;4.48;97.76;99841.66;5057836;28;20044;-41
2021/12/04 00:55:52;;;;;;;96.95;37.42;;;;;;;4.51;97.46;99841.31;5054574;28;20025;-41
2021/12/04 00:58:17;;;;;;;94.53;37.10;;;;;;;4.52;97.72;99837.66;5056444;28;20460;-40
2021/12/04 01:00:42;;;;;;;109.20;37.88;;;;;;;4.52;97.45;99837.66;5062583;28;20052;-40
2021/12/04 01:03:08;;;;;;;100.72;37.30;;;;;;;4.47;97.24;99829.31;5062402;28;20051;-41
2021/12/04 01:05:34;;;;;;;104.70;38.30;;;;;;;4.45;97.42;99825.16;5055361;28;20104;-41
2021/12/04 01:07:59;;;;;;;111.15;39.08;;;;;;;4.44;97.73;99813.66;5051152;28;20419;-41
2021/12/04 01:10:24;;;;;;;105.30;37.10;;;;;;;4.51;98.08;99809.34;5051590;28;20091;-40
2021/12/04 01:12:50;;;;;;;107.88;36.72;;;;;;;4.46;97.78;99810.84;5051110;28;20102;-40
2021/12/04 01:15:15;;;;;;;101.00;36.45;;;;;;;4.46;98.15;99801.03;5051208;28;20041;-41
2021/12/04 01:17:41;;;;;;;115.43;38.45;;;;;;;4.44;97.74;99797.69;5059491;28;20033;-42
2021/12/04 01:20:06;;;;;;;116.88;39.53;;;;;;;4.43;97.86;99798.69;5059209;28;20037;-41
2021/12/04 01:22:33;;;;;;;115.03;38.70;;;;;;;4.37;98.43;99796.69;5064336;28;20111;-41
2021/12/04 01:24:59;;;;;;;121.07;39.25;;;;;;;4.39;98.28;99800.03;5050061;28;20093;-41
2021/12/04 01:27:24;;;;;;;121.07;39.65;;;;;;;4.34;98.47;99781.03;5050994;28;20037;-40
2021/12/04 01:29:50;;;;;;;132.82;39.92;;;;;;;4.35;98.16;99783.56;5052128;28;20099;-40
2021/12/04 01:32:15;;;;;;;137.07;40.53;;;;;;;4.34;98.57;99794.38;5061448;28;20020;-40
2021/12/04 01:34:41;;;;;;;128.60;41.15;;;;;;;4.35;98.49;99796.88;5062401;28;20068;-40
2021/12/04 01:37:06;;;;;;;126.63;39.63;;;;;;;4.36;98.78;99790.53;5058199;28;20040;-40
2021/12/04 01:39:31;;;;;;;125.20;39.53;;;;;;;4.36;98.43;99789.72;5051317;28;20025;-40
2021/12/04 01:41:57;;;;;;;130.98;39.80;;;;;;;4.36;99.17;99795.03;5067466;28;20029;-40
2021/12/04 01:44:22;;;;;;;126.45;37.40;;;;;;;4.37;98.80;99792.22;5059648;28;20032;-41
2021/12/04 01:46:48;;;;;;;130.02;40.25;;;;;;;4.35;99.28;99798.72;5074419;28;20053;-40
2021/12/04 01:49:14;;;;;;;137.18;39.53;;;;;;;4.35;98.86;99790.72;5073860;28;20039;-42
2021/12/04 01:51:40;;;;;;;128.15;39.20;;;;;;;4.38;99.05;99787.72;5065089;28;20032;-41
2021/12/04 01:54:05;;;;;;;128.38;38.85;;;;;;;4.34;99.04;99797.03;5054692;28;20490;-41
2021/12/04 01:56:33;;;;;;;135.15;38.72;;;;;;;4.34;99.49;99786.38;5061524;28;20025;-41
2021/12/04 01:58:58;;;;;;;;;;;;;;;4.35;98.99;99782.72;5073441;28;20048;-41
2021/12/04 02:01:24;;;;;;;143.27;39.05;;;;;;;4.36;99.24;99787.88;5042335;28;19971;-41
2021/12/04 02:03:49;;;;;;;152.57;39.90;;;;;;;4.37;99.53;99786.88;5065617;28;20184;-41
2021/12/04 02:06:16;;;;;;;140.57;39.22;;;;;;;4.37;99.47;99788.69;5054516;28;20091;-41
2021/12/04 02:08:42;;;;;;;164.32;40.60;;;;;;;4.35;99.57;99780.06;5070541;28;20027;-42
2021/12/04 02:11:08;;;;;;;163.57;41.55;;;;;;;4.32;99.82;99781.22;5060903;28;20021;-41
2021/12/04 02:13:33;;;;;;;221.45;42.08;;;;;;;4.32;99.75;99786.56;5070092;28;20449;-41
2021/12/04 02:16:02;;;;;;;150.65;39.88;;;;;;;4.33;99.63;99784.72;5069240;28;20233;-41
2021/12/04 02:18:27;;;;;;;155.75;39.25;;;;;;;4.36;99.96;99779.06;5060044;28;20480;-41
2021/12/04 02:20:52;;;;;;;178.00;41.88;;;;;;;4.36;99.65;99774.56;5055424;28;20032;-42
2021/12/04 02:23:18;;;;;;;153.27;40.03;;;;;;;4.39;99.74;99778.72;5059741;28;20020;-41
2021/12/04 02:25:44;;;;;;;158.90;43.00;;;;;;;4.40;99.88;99785.72;5072452;28;20135;-41
2021/12/04 02:28:10;;;;;;;166.07;42.35;;;;;;;4.40;99.87;99783.06;5074141;28;20028;-41
2021/12/04 02:30:39;;;;;;;160.88;41.30;;;;;;;4.44;99.79;99776.38;5065306;28;20111;-40
2021/12/04 02:33:11;;;;;;;150.40;39.47;;;;;;;4.45;100.00;99772.72;5060771;28;20483;-41
2021/12/04 02:35:38;;;;;;;156.55;39.08;;;;;;;4.44;99.63;99779.03;5067190;28;20090;-41
2021/12/04 02:38:03;;;;;;;166.68;40.78;;;;;;;4.45;100.00;99772.72;5073880;28;20103;-41
2021/12/04 02:40:29;;;;;;;163.32;41.78;;;;;;;4.47;99.96;99769.88;5083055;28;20040;-41
2021/12/04 02:42:54;;;;;;;159.35;40.33;;;;;;;4.48;99.62;99768.91;5077757;28;20024;-41
2021/12/04 02:45:19;;;;;;;164.23;40.40;;;;;;;4.50;100.00;99769.53;5079915;28;20016;-41
2021/12/04 02:47:45;;;;;;;168.68;40.45;;;;;;;4.48;99.97;99768.91;5056323;28;20033;-42
2021/12/04 02:50:12;;;;;;;165.25;40.45;;;;;;;4.52;99.67;99759.56;5080789;28;20154;-42
2021/12/04 02:52:38;;;;;;;164.90;41.10;;;;;;;4.52;100.00;99755.03;5073445;28;20472;-41
2021/12/04 02:55:04;;;;;;;167.90;40.25;;;;;;;4.55;99.83;99756.53;5081849;28;20052;-41
2021/12/04 02:57:30;;;;;;;174.50;41.35;;;;;;;4.56;99.80;99755.56;5073600;28;20499;-42
2021/12/04 02:59:56;;;;;;;174.27;40.85;;;;;;;4.54;100.00;99761.03;5092153;28;20484;-41
2021/12/04 03:02:23;;;;;;;159.52;37.78;;;;;;;4.55;99.93;99759.19;5090593;28;20028;-41
2021/12/04 03:04:55;;;;;;;165.82;38.08;;;;;;;4.54;100.00;99760.22;5093891;28;20438;-41
2021/12/04 03:07:21;;;;;;;170.73;38.30;;;;;;;4.58;99.88;99759.72;5079348;28;20086;-41
2021/12/04 03:09:47;;;;;;;170.70;39.40;;;;;;;4.57;100.00;99760.69;5091980;28;20028;-41
2021/12/04 03:12:13;;;;;;;173.95;39.75;;;;;;;4.56;100.00;99759.06;5063256;28;20495;-41
2021/12/04 03:14:39;;;;;;;169.95;39.42;;;;;;;4.58;100.00;99754.38;5063135;28;20078;-41
2021/12/04 03:17:05;;;;;;;161.55;37.35;;;;;;;4.60;100.00;99746.19;5086140;28;20036;-42
2021/12/04 03:19:32;;;;;;;156.70;38.83;;;;;;;4.64;100.00;99744.06;5088345;28;20020;-41
2021/12/04 03:21:57;;;;;;;161.27;39.35;;;;;;;4.56;100.00;99740.41;5073842;28;20033;-41
2021/12/04 03:24:24;;;;;;;151.73;36.28;;;;;;;4.59;99.93;99737.38;5054910;28;20090;-41
2021/12/04 03:26:50;;;;;;;176.55;38.05;;;;;;;4.55;99.81;99733.38;5073241;28;20043;-41
2021/12/04 03:29:19;;;;;;;180.75;38.95;;;;;;;4.55;100.00;99732.56;5057235;28;20028;-42
2021/12/04 03:42:24;;;;;;;187.45;39.55;;;;;;;4.59;100.00;99702.75;5084625;28;20055;-41
2021/12/04 03:44:49;;;;;;;158.32;37.20;;;;;;;4.64;100.00;99704.06;5065672;28;20020;-41
2021/12/04 03:47:15;;;;;;;162.57;37.08;;;;;;;4.60;100.00;99701.72;5091624;28;20035;-41
2021/12/04 03:49:41;;;;;;;167.80;37.55;;;;;;;4.70;100.00;99703.38;5072011;28;20036;-42
2021/12/04 03:52:07;;;;;;;164.52;37.90;;;;;;;4.68;99.93;99708.03;5072272;28;20024;-41
2021/12/04 03:54:33;;;;;;;166.35;37.70;;;;;;;4.64;100.00;99710.22;5075794;28;20361;-41
2021/12/04 03:57:04;;;;;;;159.13;37.17;;;;;;;4.61;100.00;99714.06;5074190;28;20032;-41
2021/12/04 03:59:31;;;;;;;161.77;37.45;;;;;;;4.60;100.00;99704.41;5067872;28;20030;-41
2021/12/04 04:01:56;;;;;;;154.75;37.88;;;;;;;4.62;100.00;99701.56;5071797;28;20111;-41
2021/12/04 04:04:22;;;;;;;157.10;36.97;;;;;;;4.63;100.00;99695.22;5085751;28;20119;-41
2021/12/04 04:06:47;;;;;;;166.25;39.67;;;;;;;4.61;100.00;99707.91;5079484;28;20055;-41
2021/12/04 04:09:12;;;;;;;167.88;37.08;;;;;;;4.58;100.00;99709.09;5072053;28;20020;-41
2021/12/04 04:11:38;;;;;;;172.32;38.83;;;;;;;4.62;100.00;99697.06;5088247;28;20077;-41
2021/12/04 04:14:04;;;;;;;169.35;37.92;;;;;;;4.55;99.96;99688.09;5054134;28;20029;-41
2021/12/04 04:16:30;;;;;;;167.98;38.60;;;;;;;4.59;100.00;99686.75;5071974;28;20383;-41
2021/12/04 04:18:55;;;;;;;193.73;39.83;;;;;;;4.62;100.00;99683.75;5086486;28;20032;-41
2021/12/04 04:21:21;;;;;;;178.63;40.55;;;;;;;4.59;100.00;99681.44;5077574;28;20032;-41
2021/12/04 04:23:46;;;;;;;165.55;37.75;;;;;;;4.63;100.00;99676.56;5090375;28;20035;-41
2021/12/04 04:26:11;;;;;;;168.20;37.20;;;;;;;4.60;99.87;99684.91;5084102;28;20122;-41
2021/12/04 04:28:37;;;;;;;185.50;38.83;;;;;;;4.59;100.00;99683.25;5071188;28;20295;-41
2021/12/04 04:31:03;;;;;;;164.90;38.83;;;;;;;4.58;100.00;99684.25;5068950;28;20040;-41
2021/12/04 04:33:30;;;;;;;175.30;38.45;;;;;;;4.57;100.00;99678.09;5057476;28;20024;-41
2021/12/04 04:36:07;;;;;;;170.82;37.80;;;;;;;4.62;100.00;99683.75;5064069;28;20087;-41
2021/12/04 04:38:45;;;;;;;181.32;39.17;;;;;;;4.68;100.00;99676.06;5077110;28;20078;-41
2021/12/04 04:57:45;;;;;;;160.70;37.28;;;;;;;4.70;99.80;99658.06;5087925;28;20097;-41
2021/12/04 05:00:22;;;;;;;157.88;36.85;;;;;;;4.69;99.70;99662.56;5083384;28;20098;-41
2021/12/04 05:13:27;;;;;;;151.35;36.22;;;;;;;4.71;99.47;99657.06;5074057;28;20495;-41
2021/12/04 05:15:57;;;;;;;165.10;37.35;;;;;;;4.71;99.75;99655.22;5077145;28;20024;-39
2021/12/04 05:21:04;;;;;;;132.32;33.13;;;;;;;4.74;99.26;99633.56;5073489;28;20094;-40
2021/12/04 05:23:38;;;;;;;127.85;33.28;;;;;;;4.77;99.46;99627.06;5080642;28;20056;-40
2021/12/04 05:26:09;;;;;;;139.65;35.55;;;;;;;4.70;98.94;99616.25;5061666;28;20025;-42
2021/12/04 05:28:34;;;;;;;150.02;35.85;;;;;;;4.66;99.01;99625.63;5079434;28;20028;-41
2021/12/04 05:31:00;;;;;;;140.63;34.05;;;;;;;4.61;99.13;99620.81;5056993;28;20093;-40
2021/12/04 05:33:26;;;;;;;136.77;34.20;;;;;;;4.70;99.03;99620.75;5085535;28;20047;-41
2021/12/04 05:35:52;;;;;;;121.15;33.35;;;;;;;4.76;98.88;99630.72;5082024;28;20131;-40
2021/12/04 05:38:18;;;;;;;125.07;31.70;;;;;;;4.74;98.65;99630.06;5074610;28;20455;-41
2021/12/04 05:40:44;;;;;;;126.55;32.17;;;;;;;4.73;98.74;99636.41;5084435;28;20094;-42
2021/12/04 05:43:10;;;;;;;138.32;32.40;;;;;;;4.66;98.76;99630.09;5082809;28;20043;-40
2021/12/04 05:45:44;;;;;;;128.27;32.78;;;;;;;4.60;98.49;99635.09;5082560;28;20060;-42
2021/12/04 05:48:15;;;;;;;162.40;33.97;;;;;;;4.55;98.70;99628.63;5079498;28;20033;-40
2021/12/04 05:53:18;;;;;;;;;;;;;;;4.50;99.34;99623.00;5072408;28;20051;-40
2021/12/04 05:55:55;;;;;;;167.95;40.80;;;;;;;4.50;99.29;99615.84;5087640;28;19919;-41
2021/12/04 05:58:20;;;;;;;141.40;33.92;;;;;;;4.50;99.69;99615.84;5061022;28;20058;-41
2021/12/04 06:00:45;;;;;;;150.77;33.90;;;;;;;4.49;99.46;99626.69;5084643;28;20430;-41
2021/12/04 06:03:12;;;;;;;169.63;45.28;;;;;;;4.48;99.23;99623.19;5086521;28;20028;-42
2021/12/04 06:05:37;;;;;;;141.38;32.90;;;;;;;4.50;99.76;99621.19;5077722;28;20020;-41
2021/12/04 06:08:03;;;;;;;139.93;35.47;;;;;;;4.55;99.80;99618.81;5073357;28;20122;-42
2021/12/04 06:10:29;;;;;;;129.68;30.88;;;;;;;4.49;99.23;99614.19;5073670;28;20024;-42
2021/12/04 06:12:54;;;;;;;130.20;31.52;;;;;;;4.49;99.72;99618.69;5074122;28;20032;-41
2021/12/04 06:15:20;;;;;;;127.60;30.52;;;;;;;4.47;99.50;99615.34;5072596;28;20408;-41
2021/12/04 06:17:45;;;;;;;129.30;29.90;;;;;;;4.50;99.39;99620.34;5073613;28;20089;-41
2021/12/04 06:22:55;;;;;;;127.25;29.23;;;;;;;4.47;99.26;99621.50;5074313;28;20063;-40
2021/12/04 06:25:24;;;;;;;134.27;33.35;;;;;;;4.45;99.37;99618.22;5071042;28;20025;-41
2021/12/04 06:27:50;;;;;;;143.77;34.78;;;;;;;4.38;99.28;99609.25;5073983;28;20185;-41
2021/12/04 06:30:17;;;;;;;116.90;28.50;;;;;;;4.37;99.06;99607.56;5073592;28;20107;-41
2021/12/04 06:32:43;;;;;;;123.40;29.90;;;;;;;4.37;99.49;99604.91;5061024;28;20654;-41
2021/12/04 06:35:10;;;;;;;114.90;28.73;;;;;;;4.34;99.49;99618.56;5052619;28;20121;-39
2021/12/04 06:37:36;;;;;;;118.88;28.73;;;;;;;4.29;99.17;99618.25;5070727;28;20021;-39
2021/12/04 06:40:03;;;;;;;109.53;26.63;;;;;;;4.33;99.25;99614.25;5079198;28;20392;-39
2021/12/04 06:42:28;;;;;;;101.63;25.40;;;;;;;4.36;99.18;99613.91;5084181;28;20036;-39
2021/12/04 06:44:56;;;;;;;97.35;25.17;;;;;;;4.29;98.91;99615.56;5070801;28;20111;-44
2021/12/04 06:47:22;;;;;;;114.22;28.80;;;;;;;4.29;99.31;99612.91;5073595;28;20036;-42
2021/12/04 06:49:48;;;;;;;103.30;27.35;;;;;;;4.34;99.21;99615.91;5086227;28;20024;-41
2021/12/04 06:52:18;;;;;;;123.10;27.40;;;;;;;4.22;98.88;99607.47;5076727;28;20038;-42
2021/12/04 06:54:53;;;;;;;121.70;28.92;;;;;;;4.16;99.19;99603.66;5083531;28;20482;-41
2021/12/04 06:57:19;;;;;;;109.78;27.20;;;;;;;4.17;99.38;99599.97;5088264;28;20165;-41
2021/12/04 06:59:46;;;;;;;113.00;27.17;;;;;;;4.15;99.60;99596.66;5074179;28;20119;-41
2021/12/04 07:02:13;;;;;;;109.82;28.02;;;;;;;4.12;99.20;99591.66;5072550;28;20024;-41
2021/12/04 07:04:38;;;;;;;113.05;27.45;;;;;;;4.18;99.48;99588.31;5063182;28;20059;-41
2021/12/04 07:07:05;;;;;;;110.93;28.05;;;;;;;4.20;99.16;99584.66;5073026;28;20025;-41
2021/12/04 07:09:31;;;;;;;114.85;26.90;;;;;;;4.24;99.52;99583.31;5088305;28;20024;-41
2021/12/04 07:11:59;;;;;;;104.65;26.13;;;;;;;4.26;99.27;99590.13;5084798;28;20029;-40
2021/12/04 07:14:25;;;;;;;94.93;24.23;;;;;;;4.23;99.41;99592.31;5093170;28;20036;-40
2021/12/04 07:16:51;;;;;;;70.65;21.73;;;;;;;4.10;99.13;99596.31;5057844;28;20047;-41
2021/12/04 07:19:16;;;;;;;94.90;25.30;;;;;;;4.13;98.71;99588.03;5093118;28;20031;-41
2021/12/04 07:21:43;;;;;;;99.32;24.70;;;;;;;4.13;98.86;99577.38;5084474;28;20025;-42
2021/12/04 07:24:10;;;;;;;93.05;25.15;;;;;;;4.25;98.58;99574.31;5080734;28;20025;-41
2021/12/04 07:26:35;;;;;;;101.85;23.88;;;;;;;4.26;97.92;99575.97;5072980;28;20029;-42
2021/12/04 07:29:01;;;;;;;125.70;25.20;;;;;;;4.18;97.75;99567.00;5085880;28;20339;-41
2021/12/04 07:31:26;;;;;;;89.40;23.13;;;;;;;4.21;97.68;99567.66;5084784;28;20501;-42
2021/12/04 07:33:51;;;;;;;84.00;23.65;;;;;;;4.13;97.62;99550.75;5072923;28;20028;-41
2021/12/04 07:36:17;;;;;;;84.72;21.67;;;;;;;4.10;97.42;99545.75;5086214;28;20043;-41
2021/12/04 07:38:42;;;;;;;97.43;26.30;;;;;;;4.08;98.04;99550.44;5088863;28;20505;-41
2021/12/04 07:41:08;;;;;;;93.65;25.95;;;;;;;4.06;97.63;99551.59;5086974;28;20032;-41
2021/12/04 07:43:33;;;;;;;102.95;26.95;;;;;;;4.07;98.10;99550.59;5054418;28;20040;-41
2021/12/04 07:45:59;;;;;;;121.38;28.95;;;;;;;4.07;97.87;99548.75;5091384;28;20479;-40
2021/12/04 07:48:24;;;;;;;114.50;28.40;;;;;;;4.11;97.82;99543.94;5078185;28;20480;-41
2021/12/04 07:50:50;;;;;;;109.47;28.50;;;;;;;3.96;98.56;99533.97;5062232;28;20051;-41
2021/12/04 07:53:15;;;;;;;107.22;26.30;;;;;;;3.97;98.11;99542.78;5076205;28;20027;-41
2021/12/04 07:55:41;;;;;;;154.50;28.13;;;;;;;3.88;98.42;99541.16;5057749;28;20032;-40
2021/12/04 07:58:06;;;;;;;109.50;28.65;;;;;;;3.94;98.92;99538.63;5080654;28;20052;-41
2021/12/04 08:00:32;;;;;;;111.15;26.75;;;;;;;3.97;98.67;99545.44;5086286;28;20035;-40
2021/12/04 08:02:57;;;;;;;114.30;26.85;;;;;;;3.89;98.85;99538.31;5071997;28;20060;-40
2021/12/04 08:05:22;;;;;;;138.90;31.23;;;;;;;3.82;98.20;99531.19;5072049;28;20035;-41
2021/12/04 08:07:48;;;;;;;136.98;31.38;;;;;;;3.77;98.28;99533.56;5083924;28;20054;-41
2021/12/04 08:10:16;;;;;;;148.10;31.67;;;;;;;3.83;98.59;99538.19;5092310;28;20127;-41
2021/12/04 08:12:42;;;;;;;152.32;34.10;;;;;;;3.86;98.72;99540.50;5083514;28;20023;-41
2021/12/04 08:15:08;;;;;;;152.43;34.25;;;;;;;3.83;98.62;99546.16;5074342;28;20099;-40
2021/12/04 08:17:34;;;;;;;144.73;33.13;;;;;;;3.84;98.96;99550.47;5078208;28;20028;-41
2021/12/04 08:19:59;;;;;;;143.93;32.63;;;;;;;3.88;99.28;99568.59;5082648;28;20093;-40
2021/12/04 08:22:25;;;;;;;140.65;29.15;;;;;;;3.99;99.24;99564.75;5064383;28;20029;-42
2021/12/04 08:24:50;;;;;;;115.28;27.88;;;;;;;4.01;99.51;99567.25;5081258;28;20483;-39
2021/12/04 08:27:16;;;;;;;114.00;25.30;;;;;;;3.98;99.54;99563.09;5078400;28;20435;-42
2021/12/04 08:29:42;;;;;;;113.82;24.88;;;;;;;4.02;99.00;99547.59;5087829;28;20024;-39
2021/12/04 08:32:08;;;;;;;106.60;23.33;;;;;;;4.01;98.71;99548.63;5088305;28;20401;-40
2021/12/04 08:34:34;;;;;;;117.55;24.45;;;;;;;4.05;98.51;99556.06;5071417;28;20469;-40
2021/12/04 08:37:00;;;;;;;109.28;24.15;;;;;;;4.07;98.96;99559.41;5082647;28;21180;-41
2021/12/04 08:39:25;;;;;;;91.57;22.48;;;;;;;4.12;98.51;99553.56;5080161;28;20527;-41
2021/12/04 08:41:51;;;;;;;95.50;22.63;;;;;;;4.25;99.02;99545.84;5075197;28;20038;-41
2021/12/04 08:44:16;;;;;;;107.50;23.33;;;;;;;4.26;98.66;99544.03;5060547;28;20027;-41
2021/12/04 08:46:42;;;;;;;148.93;25.55;;;;;;;4.19;98.30;99538.56;5088064;28;20032;-41
2021/12/04 08:49:09;;;;;;;90.13;21.42;;;;;;;4.17;98.50;99536.06;5075830;28;20025;-41
2021/12/04 08:51:34;;;;;;;92.75;20.67;;;;;;;4.18;98.42;99513.75;5071563;28;20036;-41
2021/12/04 08:54:01;;;;;;;87.60;22.50;;;;;;;4.15;98.66;99522.09;5057201;28;20042;-41
2021/12/04 08:56:27;;;;;;;93.32;21.88;;;;;;;4.17;98.13;99520.09;5057612;28;20381;-41
2021/12/04 08:58:52;;;;;;;107.25;21.67;;;;;;;4.27;98.52;99513.75;5091892;28;20020;-41
2021/12/04 09:01:24;;;;;;;90.95;23.67;;;;;;;4.26;98.67;99507.56;5086765;28;20383;-41
2021/12/04 09:03:55;;;;;;;117.80;22.98;;;;;;;4.17;98.44;99509.44;5086081;28;20100;-42
2021/12/04 09:06:21;;;;;;;105.15;22.85;;;;;;;4.08;98.58;99505.16;5075373;28;20028;-41
2021/12/04 09:08:47;;;;;;;94.75;21.45;;;;;;;4.04;98.82;99501.19;5074218;28;20081;-41
2021/12/04 09:11:18;;;;;;;105.57;24.70;;;;;;;4.07;98.96;99514.13;5088591;28;20048;-42
2021/12/04 09:13:44;;;;;;;108.35;23.33;;;;;;;4.13;98.46;99513.47;5083603;28;20226;-42
2021/12/04 09:16:10;;;;;;;97.03;25.42;;;;;;;4.16;98.72;99506.94;5088622;28;20028;-40
2021/12/04 09:18:36;;;;;;;102.07;25.40;;;;;;;4.20;98.40;99512.75;5065270;28;20112;-41
2021/12/04 09:21:04;;;;;;;96.40;24.15;;;;;;;4.28;98.84;99520.72;5061212;28;20040;-41
2021/12/04 09:23:34;;;;;;;122.43;25.83;;;;;;;4.17;98.85;99516.59;5088232;28;20032;-42
2021/12/04 09:26:03;;;;;;;116.90;26.67;;;;;;;4.17;99.11;99520.09;5082534;28;20120;-42
2021/12/04 09:28:46;;;;;;;118.50;26.90;;;;;;;4.22;98.99;99516.09;5091203;28;20391;-41
2021/12/04 09:31:24;;;;;;;107.45;27.30;;;;;;;4.33;99.04;99511.19;5083103;28;20043;-41
2021/12/04 09:34:16;;;;;;;122.20;25.60;;;;;;;4.32;98.77;99509.53;5059305;28;20020;-41
2021/12/04 10:19:36;;;;;;;134.77;34.33;;;;;;;4.83;98.49;99458.41;5087767;28;20543;-41
2021/12/04 10:33:21;;;;;;;140.57;36.80;;;;;;;5.17;95.63;99459.81;5086950;28;20454;-41
2021/12/04 10:35:48;;;;;;;141.32;36.00;;;;;;;5.13;95.74;99461.16;5085445;28;20049;-42
2021/12/04 10:38:38;;;;;;;129.23;35.07;;;;;;;5.05;95.93;99454.91;5085155;28;20036;-40
2021/12/04 10:41:04;;;;;;;130.20;36.20;;;;;;;5.06;96.41;99451.22;5073709;28;20535;-41
2021/12/04 10:43:31;;;;;;;140.10;37.50;;;;;;;5.05;96.83;99460.25;5079337;28;20479;-41
2021/12/04 10:46:04;;;;;;;149.90;38.05;;;;;;;4.93;96.93;99452.84;5062485;28;20050;-41
2021/12/04 10:48:32;;;;;;;147.23;38.72;;;;;;;4.94;97.11;99457.16;5083508;28;20040;-41
2021/12/04 10:51:22;;;;;;;140.32;37.30;;;;;;;4.91;97.42;99450.34;5081879;28;20052;-41
2021/12/04 10:53:54;;;;;;;124.30;34.63;;;;;;;4.87;97.59;99451.72;5085231;28;20089;-41
2021/12/04 10:56:30;;;;;;;127.65;36.03;;;;;;;4.84;97.36;99446.72;5092873;28;20055;-42
2021/12/04 11:04:15;;;;;;;113.65;34.22;;;;;;;4.91;97.72;99437.03;5067338;28;20051;-41
2021/12/04 11:07:17;;;;;;;118.40;34.60;;;;;;;4.86;97.08;99434.06;5086663;28;20360;-41
2021/12/04 11:23:54;;;;;;;128.48;37.85;;;;;;;4.98;96.69;99389.16;5088759;28;20098;-41
2021/12/04 11:40:21;;;;;;;151.05;38.50;;;;;;;5.07;97.32;99372.88;5086058;28;20190;-41
2021/12/04 11:42:54;;;;;;;160.25;39.78;;;;;;;4.99;97.34;99367.63;5075811;28;20032;-41
2021/12/04 11:45:27;;;;;;;161.50;36.75;;;;;;;5.03;97.31;99371.59;5077187;28;20039;-42
2021/12/04 11:47:57;;;;;;;153.55;38.22;;;;;;;5.04;97.64;99375.09;5086505;28;20055;-42
2021/12/04 11:50:32;;;;;;;140.05;38.03;;;;;;;4.96;98.01;99386.66;5086445;28;20157;-40
2021/12/04 11:53:01;;;;;;;144.38;35.53;;;;;;;4.92;98.34;99384.53;5059347;28;20059;-40
2021/12/04 11:55:29;;;;;;;138.52;34.05;;;;;;;4.92;98.37;99390.69;5073533;28;20034;-41
2021/12/04 11:57:54;;;;;;;124.00;32.25;;;;;;;4.83;98.82;99379.28;5091003;28;20016;-39
2021/12/04 12:00:26;;;;;;;132.88;34.45;;;;;;;4.84;99.13;99377.44;5091792;28;20024;-43
2021/12/04 12:03:03;;;;;;;138.27;32.22;;;;;;;4.87;99.30;99366.44;5072216;28;20447;-43
2021/12/04 12:05:29;;;;;;;125.22;32.05;;;;;;;4.88;99.60;99361.94;5080988;28;20038;-43
2021/12/04 12:07:57;;;;;;;122.60;33.08;;;;;;;4.91;99.50;99361.56;5058315;28;20028;-42
2021/12/04 12:10:26;;;;;;;111.78;26.65;;;;;;;4.94;99.67;99367.34;5069888;28;20031;-43
2021/12/04 12:12:54;;;;;;;99.93;25.80;;;;;;;4.92;99.61;99357.88;5065481;28;20176;-45
2021/12/04 12:15:31;;;;;;;90.10;24.45;;;;;;;4.92;99.71;99357.88;5083308;28;20029;-47
2021/12/04 12:18:11;;;;;;;94.38;23.58;;;;;;;4.95;99.59;99342.34;5081339;28;20043;-49
2021/12/04 12:20:41;;;;;;;95.97;23.10;;;;;;;4.96;99.77;99349.34;5075087;28;20070;-46
2021/12/04 12:23:10;;;;;;;94.18;23.33;;;;;;;4.98;99.74;99336.66;5069739;28;20032;-48
2021/12/04 12:36:14;;;;;;;97.65;24.20;;;;;;;4.96;99.38;99338.66;5084915;28;20053;-48
2021/12/04 12:39:04;;;;;;;112.65;23.45;;;;;;;5.01;99.27;99330.94;5060230;28;20554;-47
2021/12/04 12:41:32;;;;;;;112.53;24.20;;;;;;;5.01;99.65;99330.94;5064220;28;20094;-45
2021/12/04 12:44:28;;;;;;;101.07;23.55;;;;;;;5.06;99.84;99333.91;5086666;28;20495;-46
2021/12/04 12:46:59;;;;;;;115.55;24.58;;;;;;;5.09;99.73;99329.22;5026874;28;20042;-45
2021/12/04 12:49:33;;;;;;;79.95;17.60;;;;;;;5.14;99.84;99334.81;5058605;28;20549;-46
2021/12/04 12:52:00;;;;;;;53.30;12.55;;;;;;;5.27;99.98;99335.81;5059475;28;20438;-46
2021/12/04 12:54:36;;;;;;;29.15;7.25;;;;;;;5.35;99.31;99337.56;5089049;28;20024;-45
2021/12/04 12:57:04;;;;;;;18.60;4.40;;;;;;;5.40;98.73;99340.50;5085533;28;20032;-47
2021/12/04 13:13:30;;;;;;;11.65;1.10;;;;;;;5.42;94.58;99343.81;5090091;28;20133;-50
2021/12/04 13:16:03;;;;;;;13.77;1.85;;;;;;;5.41;94.75;99350.16;5083204;28;20113;-49
2021/12/04 13:18:30;;;;;;;6.00;1.02;;;;;;;5.44;94.19;99344.44;5082645;28;20030;-47
2021/12/04 13:21:00;;;;;;;14.57;1.92;;;;;;;5.46;94.15;99344.28;5087993;28;20111;-49
2021/12/04 13:23:26;;;;;;;15.82;1.38;;;;;;;5.52;93.83;99345.38;5072199;28;20037;-49
2021/12/04 13:25:57;;;;;;;7.45;1.10;;;;;;;5.56;93.97;99354.69;5076495;28;20422;-48
2021/12/04 13:28:25;;;;;;;8.20;1.35;;;;;;;5.57;93.67;99354.47;5049806;28;20115;-52
2021/12/04 13:30:50;;;;;;;9.10;1.02;;;;;;;5.52;93.41;99350.72;5080631;28;20472;-49
2021/12/04 13:33:16;;;;;;;8.70;1.20;;;;;;;5.56;94.29;99362.69;5070269;28;20034;-52
2021/12/04 13:35:45;;;;;;;7.05;1.00;;;;;;;5.55;93.59;99358.34;5065556;28;20049;-53
2021/12/04 13:38:12;;;;;;;5.05;1.08;;;;;;;5.56;93.04;99357.34;5067815;28;20040;-51
2021/12/04 13:40:38;;;;;;;8.98;1.35;;;;;;;5.56;93.16;99360.00;5089947;28;20475;-51
2021/12/04 13:43:11;;;;;;;8.50;1.20;;;;;;;5.56;93.29;99354.69;5091525;28;20082;-52
2021/12/04 13:45:37;;;;;;;6.65;1.17;;;;;;;5.57;92.71;99364.31;5085403;28;20024;-50
2021/12/04 13:48:03;;;;;;;8.38;1.95;;;;;;;5.55;92.27;99364.50;5086060;28;20039;-51
2021/12/04 13:53:17;;;;;;;4.43;1.30;;;;;;;5.58;92.07;99358.81;5078635;28;20282;-48
2021/12/04 13:55:48;;;;;;;4.60;1.15;;;;;;;5.57;92.08;99357.13;5066100;28;20383;-50
2021/12/04 13:58:14;;;;;;;3.13;0.93;;;;;;;5.55;93.06;99363.69;5071268;28;20038;-47
2021/12/04 14:00:39;;;;;;;6.50;1.40;;;;;;;5.54;93.16;99364.69;5068262;28;20035;-48
2021/12/04 14:03:05;;;;;;;7.78;1.63;;;;;;;5.53;93.84;99371.88;5089930;28;20110;-47
2021/12/04 14:05:30;;;;;;;8.00;2.33;;;;;;;5.59;93.94;99373.81;5074576;28;20074;-46
2021/12/04 14:08:00;;;;;;;9.70;2.85;;;;;;;5.59;94.31;99375.66;5065333;28;20036;-47
2021/12/04 14:10:30;;;;;;;10.40;1.73;;;;;;;5.63;94.37;99382.25;5089844;28;20483;-45
2021/12/04 14:12:57;;;;;;;6.55;1.50;;;;;;;5.59;94.44;99389.81;5088701;28;20052;-46
2021/12/04 14:15:23;;;;;;;8.27;1.70;;;;;;;5.60;94.74;99386.13;5082649;28;20028;-51